aviador You're here:

KGXY Decoded Metar

GREELEY/WELD in CO, USA
Report Time2017-07-21 05:56:00
UTC Time2017-07-21 06:44:16
Flight Rules vfr VFR
Wind130° at 08 kt
W.Decomp.*RWY 09: 7.0 kt HW 3.9 kt RCW
RWY 16: 6.0 kt HW 5.2 kt LCW
W.Rank130° ranks 13
Current wind is above 130° avg. (6.9)
Visibility9999 m
Phenomena:N/A
Clouds:N/A
Expected CloudBase > 3,600 ft AGL from Temp-Dew spread
CeilingNone
Temp23°C (ISA +17)
Dew Point14°C (57% RH)
AAT21.4°C
QNH1018 hPa
Density Alt6,703 ft
Elevation4,659 ft
Report Wrong Elevation
Raw Report
METAR KGXY 210556Z AUTO 13008KT 10SM CLR 23/14 A3005 RMK AO2 SLP126
T02280139 10328 20228 58010=

Extra information for KGXY:More info

Metar Taf Metar & Taf Last 4 Metars F.Rules Stats Wind Profile Meteogram Temp Stats Airport Information Weather charts Add Link Nearby VenuesMetar ALERT Operation Metar Decoded Social comments

AIRNAV info for KGXY